Dominia — ICFW — position and weather

sailwx.info

Track history (hours):
 
Tides and Currents Weather Stations Pressure Air Temp Water Temp Dewpoint Dewpoint Depression Visibility Wind Speed Wind Dir Waves Ship Positions

Dominia

Last reported at 2018-Apr-26 05:08 UTC. Time now 2018-Apr-26 05:39 UTC.
Position N 33°56' E 016°36'.

Length 166 m; draft 7 m.

Type: Ship (hazmat cat B). MMSI: 247273400.

Date/timePositionNaut miles runAvg speedWind from/ knotsBaromVisibWave heightAir tempDewpointWater temp
2018-Apr-26 05:08N 33°56' E 016°36'0 0.8
2018-Apr-26 05:00N 33°56' E 016°36'1 0.8
2018-Apr-26 04:14N 33°55' E 016°36'0 0.8
2018-Apr-26 03:49N 33°55' E 016°36'0 0.8
2018-Apr-26 03:30N 33°55' E 016°36'0 0.8
2018-Apr-26 02:59N 33°54' E 016°36'0 0.8
2018-Apr-26 02:29N 33°54' E 016°37'0 0.8
2018-Apr-26 02:00N 33°54' E 016°37'0 0.8
2018-Apr-26 01:28N 33°53' E 016°37'0 0.9
2018-Apr-26 00:59N 33°53' E 016°37'0 0.9
2018-Apr-26 00:27N 33°53' E 016°37'0 0.8
2018-Apr-25 23:57N 33°52' E 016°38'1 0.8
2018-Apr-25 22:58N 33°51' E 016°38'8 0.6
2018-Apr-25 08:59N 33°44' E 016°36'1312.4
2018-Apr-25 07:59N 33°34' E 016°27'912.9
2018-Apr-25 07:18N 33°27' E 016°20'1712.9
2018-Apr-25 05:57N 33°14' E 016°07'712.6
2018-Apr-25 05:26N 33°09' E 016°02'  
2018-Apr-17 19:34N 37°10' E 023°49'112.3
2018-Apr-17 19:28N 37°12' E 023°50'612.3
2018-Apr-17 19:00N 37°17' E 023°53'612.4
2018-Apr-17 18:30N 37°22' E 023°57'612.4
2018-Apr-17 18:00N 37°27' E 024°01'712.4
2018-Apr-17 17:26N 37°33' E 024°06'1312.2
2018-Apr-17 16:22N 37°44' E 024°15'812.4
2018-Apr-17 15:43N 37°49' E 024°23'  
Track history (hours):
 
Tides and Currents Weather Stations Pressure Air Temp Water Temp Dewpoint Dewpoint Depression Visibility Wind Speed Wind Dir Waves Ship Positions

Dominia

Last reported at 2018-Apr-26 05:08 UTC. Time now 2018-Apr-26 05:39 UTC.
Position N 33°56' E 016°36'.

Length 166 m; draft 7 m.

Type: Ship (hazmat cat B). MMSI: 247273400.

Date/timePositionNaut miles runAvg speedWind from/ knotsBaromVisibWave heightAir tempDewpointWater temp
2018-Apr-26 05:08N 33°56' E 016°36'0 0.8
2018-Apr-26 05:00N 33°56' E 016°36'1 0.8
2018-Apr-26 04:14N 33°55' E 016°36'0 0.8
2018-Apr-26 03:49N 33°55' E 016°36'0 0.8
2018-Apr-26 03:30N 33°55' E 016°36'0 0.8
2018-Apr-26 02:59N 33°54' E 016°36'0 0.8
2018-Apr-26 02:29N 33°54' E 016°37'0 0.8
2018-Apr-26 02:00N 33°54' E 016°37'0 0.8
2018-Apr-26 01:28N 33°53' E 016°37'0 0.9
2018-Apr-26 00:59N 33°53' E 016°37'0 0.9
2018-Apr-26 00:27N 33°53' E 016°37'0 0.8
2018-Apr-25 23:57N 33°52' E 016°38'1 0.8
2018-Apr-25 22:58N 33°51' E 016°38'8 0.6
2018-Apr-25 08:59N 33°44' E 016°36'1312.4
2018-Apr-25 07:59N 33°34' E 016°27'912.9
2018-Apr-25 07:18N 33°27' E 016°20'1712.9
2018-Apr-25 05:57N 33°14' E 016°07'712.6
2018-Apr-25 05:26N 33°09' E 016°02'  
2018-Apr-17 19:34N 37°10' E 023°49'112.3
2018-Apr-17 19:28N 37°12' E 023°50'612.3
2018-Apr-17 19:00N 37°17' E 023°53'612.4
2018-Apr-17 18:30N 37°22' E 023°57'612.4
2018-Apr-17 18:00N 37°27' E 024°01'712.4
2018-Apr-17 17:26N 37°33' E 024°06'1312.2
2018-Apr-17 16:22N 37°44' E 024°15'812.4
2018-Apr-17 15:43N 37°49' E 024°23'  

Dump ship's entire track history